Flight Track Log - Related Links

Times and Time Zones

All times are in EDT time to prevent confusion due to time zone crossing. See the UAL1141 flight status page for this flight to view local times or setup timezone preferences in your user account.

Time Position Orientation Groundspeed Altitude Reporting Facility
EDT Latitude Longitude Course Direction KTS MPH feet Rate Location/Type
Sun 03:21:31 PM 41.3910 -81.8980 270° West 179 206 2,100  Level FlightAware ADS-B
Sun 03:21:44 PM 41.3920 -81.9130 275° West 197 227 2,300 1,371 Climbing FlightAware ADS-B
Sun 03:22:06 PM 41.3940 -81.9370 276° West 221 254 2,900 3,231 Climbing FlightAware ADS-B
Sun 03:22:23 PM 41.3980 -81.9750 278° West 227 261 4,400 4,435 Climbing FlightAware ADS-B
Sun 03:22:29 PM 41.4000 -81.9810 294° West 243 280 4,600 1,909 Climbing FlightAware ADS-B
Sun 03:22:45 PM 41.4160 -81.9990 320° Northwest 269 310 5,100 1,895 Climbing FlightAware ADS-B
Sun 03:23:07 PM 41.4350 -82.0030 351° North 284 327 5,800 2,182 Climbing FlightAware ADS-B
Sun 03:23:29 PM 41.4550 -81.9920 22° Northeast 297 342 6,700 2,800 Climbing FlightAware ADS-B
Sun 03:23:37 PM 41.4620 -81.9840 41° Northeast 297 342 7,200 4,765 Climbing FlightAware ADS-B
Sun 03:24:03 PM 41.4910 -81.9410 48° Northeast 281 323 9,400 4,154 Climbing FlightAware ADS-B
Sun 03:24:16 PM 41.5010 -81.9260 48° Northeast 286 329 9,900 1,680 Climbing FlightAware ADS-B
Sun 03:24:53 PM 41.5450 -81.8590 49° Northeast 349 402 10,800 1,808 Climbing FlightAware ADS-B
Sun 03:25:29 PM 41.5860 -81.7980 48° Northeast 371 427 12,100 2,294 Climbing FlightAware ADS-B
Sun 03:26:01 PM 41.6240 -81.7420 48° Northeast 385 443 13,400 2,206 Climbing FlightAware ADS-B
Sun 03:26:37 PM 41.6670 -81.6770 48° Northeast 404 465 14,600 2,294 Climbing FlightAware ADS-B
Sun 03:27:09 PM 41.7080 -81.6160 48° Northeast 410 472 16,000 2,182 Climbing FlightAware ADS-B
Sun 03:27:43 PM 41.7410 -81.5670 48° Northeast 417 480 17,000 1,944 Climbing FlightAware ADS-B
Sun 03:28:20 PM 41.7880 -81.4960 48° Northeast 427 491 18,300 2,137 Climbing FlightAware ADS-B
Sun 03:28:56 PM 41.8280 -81.4270 52° Northeast 431 496 19,600 2,348 Climbing FlightAware ADS-B
Sun 03:29:06 PM 41.8390 -81.3960 65° Northeast 428 493 20,100 2,372 Climbing FlightAware ADS-B
Sun 03:29:39 PM 41.8590 -81.2870 76° East 442 509 21,300 1,315 Climbing FlightAware ADS-B
Sun 03:30:19 PM 41.8600 -81.2040 89° East 462 532 21,700 1,151 Climbing FlightAware ADS-B
Sun 03:30:52 PM 41.8510 -81.1030 97° East 468 539 22,700 1,750 Climbing FlightAware ADS-B
Sun 03:31:31 PM 41.8390 -80.9730 97° East 476 548 23,800 1,500 Climbing FlightAware ADS-B
Sun 03:31:56 PM 41.8320 -80.8950 97° East 481 554 24,300 1,200 Climbing FlightAware ADS-B
Sun 03:32:31 PM 41.8220 -80.7950 98° East 491 565 25,000 1,114 Climbing FlightAware ADS-B
Sun 03:33:06 PM 41.8110 -80.6830 97° East 499 574 25,600 930 Climbing FlightAware ADS-B
Sun 03:33:42 PM 41.8030 -80.5960 97° East 504 580 26,100 1,371 Climbing FlightAware ADS-B
Sun 03:34:16 PM 41.7910 -80.4700 97° East 503 579 27,200 1,826 Climbing FlightAware ADS-B
Sun 03:34:51 PM 41.7800 -80.3630 98° East 498 573 28,200 1,521 Climbing FlightAware ADS-B
Sun 03:35:27 PM 41.7690 -80.2600 98° East 499 574 29,000 1,183 Climbing FlightAware ADS-B
Sun 03:36:02 PM 41.7580 -80.1510 98° East 503 579 29,600 1,273 Climbing FlightAware ADS-B
Sun 03:36:33 PM 41.7470 -80.0440 98° East 503 579 30,400 1,518 Climbing FlightAware ADS-B
Sun 03:37:25 PM 41.7310 -79.8890 98° East 497 572 31,700 1,600 Climbing FlightAware ADS-B
Sun 03:38:03 PM 41.7200 -79.7770 97° East 488 562 32,800 1,068 Climbing FlightAware ADS-B
Sun 03:38:38 PM 41.7080 -79.6660 98° East 487 560 33,000 176 Climbing FlightAware ADS-B
Sun 03:39:11 PM 41.6980 -79.5730 98° East 487 560 33,000  Level FlightAware ADS-B
Sun 03:39:49 PM 41.6850 -79.4560 98° East 486 559 33,000  Level FlightAware ADS-B
Sun 03:40:18 PM 41.6760 -79.3780 99° East 485 558 33,000  Level FlightAware ADS-B
Sun 03:40:55 PM 41.6630 -79.2610 98° East 484 557 33,000  Level FlightAware ADS-B
Sun 03:41:31 PM 41.6510 -79.1530 98° East 484 557 33,000  Level FlightAware ADS-B
Sun 03:42:08 PM 41.6390 -79.0450 98° East 484 557 33,000  Level FlightAware ADS-B
Sun 03:42:41 PM 41.6280 -78.9480 99° East 486 559 33,000  Level FlightAware ADS-B
Sun 03:43:19 PM 41.6160 -78.8360 98° East 487 560 33,000  Level FlightAware ADS-B
Sun 03:43:53 PM 41.6040 -78.7310 99° East 487 560 33,000  Level FlightAware ADS-B
Sun 03:44:27 PM 41.5920 -78.6320 99° East 487 560 33,000  Level FlightAware ADS-B
Sun 03:45:03 PM 41.5800 -78.5300 99° East 488 562 33,000  Level FlightAware ADS-B
Sun 03:45:45 PM 41.5640 -78.3980 99° East 489 563 33,000  Level FlightAware ADS-B
Sun 03:46:20 PM 41.5510 -78.2960 100° East 490 564 33,000  Level FlightAware ADS-B
Sun 03:46:51 PM 41.5410 -78.2080 99° East 489 563 33,000  Level FlightAware ADS-B
Sun 03:47:26 PM 41.5290 -78.1060 99° East 488 562 33,000 -1,114 Level FlightAware ADS-B
Sun 03:48:01 PM 41.5170 -78.0070 99° East 488 562 31,700 -1,714 Descending FlightAware ADS-B
Sun 03:48:36 PM 41.5030 -77.8960 100° East 484 557 31,000 -609 Descending FlightAware ADS-B
Sun 03:49:10 PM 41.4890 -77.7970 101° East 482 555 31,000  Level FlightAware ADS-B
Sun 03:49:49 PM 41.4740 -77.6940 101° East 482 555 31,000  Level FlightAware ADS-B
Sun 03:50:27 PM 41.4560 -77.5730 101° East 481 554 31,000  Level FlightAware ADS-B
Sun 03:51:06 PM 41.4400 -77.4630 101° East 482 555 31,000  Level FlightAware ADS-B
Sun 03:51:42 PM 41.4260 -77.3610 100° East 482 555 31,000  Level FlightAware ADS-B
Sun 03:52:26 PM 41.4070 -77.2320 101° East 481 554 31,000  Level FlightAware ADS-B
Sun 03:53:06 PM 41.3880 -77.1050 101° East 479 551 31,000  Level FlightAware ADS-B
Sun 03:53:39 PM 41.3740 -77.0120 101° East 474 545 31,000  Level FlightAware ADS-B
Sun 03:54:15 PM 41.3590 -76.9120 101° East 470 541 31,000 -500 Level FlightAware ADS-B
Sun 03:54:51 PM 41.3430 -76.8090 102° East 461 531 30,400 -2,060 Descending FlightAware ADS-B
Sun 03:55:22 PM 41.3270 -76.7340 106° East 471 542 28,700 -3,038 Descending FlightAware ADS-B
Sun 03:56:10 PM 41.3220 -76.7120 107° East 460 529 26,400 -2,710 Descending FlightAware ADS-B
Sun 03:56:55 PM 41.2590 -76.4770 110° East 443 510 24,500 -2,415 Descending FlightAware ADS-B
Sun 03:57:32 PM 41.2330 -76.3840 110° East 431 496 23,100 -2,273 Descending FlightAware ADS-B
Sun 03:58:01 PM 41.2150 -76.3160 109° East 422 486 22,000 -2,143 Descending FlightAware ADS-B
Sun 03:58:42 PM 41.1890 -76.2190 110° East 414 476 20,600 -2,160 Descending FlightAware ADS-B
Sun 03:59:16 PM 41.1670 -76.1380 110° East 406 467 19,300 -1,543 Descending FlightAware ADS-B
Sun 03:59:52 PM 41.1440 -76.0540 110° East 413 475 18,800 -1,029 Descending FlightAware ADS-B
Sun 04:00:26 PM 41.1230 -75.9760 110° East 413 475 18,100 -1,629 Descending FlightAware ADS-B
Sun 04:01:02 PM 41.0990 -75.8910 111° Southeast 403 464 16,900 -2,028 Descending FlightAware ADS-B
Sun 04:01:37 PM 41.0750 -75.8030 110° East 398 458 15,700 -1,971 Descending FlightAware ADS-B
Sun 04:02:12 PM 41.0540 -75.7270 110° East 389 448 14,600 -1,853 Descending FlightAware ADS-B
Sun 04:02:45 PM 41.0330 -75.6530 111° Southeast 381 438 13,600 -1,403 Descending FlightAware ADS-B
Sun 04:03:29 PM 41.0060 -75.5550 110° East 374 430 12,800 -615 Descending FlightAware ADS-B
Sun 04:04:03 PM 40.9850 -75.4820 111° Southeast 371 427 12,800 -86 Level FlightAware ADS-B
Sun 04:04:39 PM 40.9650 -75.4090 110° East 362 417 12,700 -1,130 Descending FlightAware ADS-B
Sun 04:05:12 PM 40.9480 -75.3460 110° East 357 411 11,500 -1,941 Descending FlightAware ADS-B
Sun 04:05:47 PM 40.9260 -75.2690 111° Southeast 341 392 10,500 -1,200 Descending FlightAware ADS-B
Sun 04:06:17 PM 40.9120 -75.2190 110° East 323 372 10,200 -545 Descending FlightAware ADS-B
Sun 04:06:42 PM 40.8980 -75.1690 110° East 296 341 10,000 -577 Descending FlightAware ADS-B
Sun 04:07:09 PM 40.8860 -75.1290 112° Southeast 285 328 9,700 -1,021 Descending FlightAware ADS-B
Sun 04:07:29 PM 40.8760 -75.0930 110° East 279 321 9,200 -1,412 Descending FlightAware ADS-B
Sun 04:07:43 PM 40.8700 -75.0710 110° East 278 320 8,900 -1,459 Descending FlightAware ADS-B
Sun 04:08:06 PM 40.8590 -75.0320 110° East 276 318 8,300 -1,435 Descending FlightAware ADS-B
Sun 04:08:29 PM 40.8490 -74.9980 111° Southeast 274 315 7,800 -1,429 Descending FlightAware ADS-B
Sun 04:08:48 PM 40.8400 -74.9660 110° East 273 314 7,300 -1,395 Descending FlightAware ADS-B
Sun 04:09:12 PM 40.8300 -74.9290 110° East 272 313 6,800 -682 Descending FlightAware ADS-B
Sun 04:09:32 PM 40.8210 -74.8990 112° Southeast 272 313 6,800  Level FlightAware ADS-B
Sun 04:09:50 PM 40.8140 -74.8710 108° East 276 318 6,800  Level FlightAware ADS-B
Sun 04:10:01 PM 40.8090 -74.8500 107° East 279 321 6,800 -774 Level FlightAware ADS-B
Sun 04:10:21 PM 40.8060 -74.8200 98° East 280 322 6,400 -1,200 Descending FlightAware ADS-B
Sun 04:10:41 PM 40.8030 -74.7860 97° East 275 316 6,000 -537 Descending FlightAware ADS-B
Sun 04:11:28 PM 40.8210 -74.7150 71° East 269 310 5,800 -197 Descending FlightAware ADS-B
Sun 04:11:42 PM 40.8310 -74.6950 57° Northeast 269 310 5,800  Level FlightAware ADS-B
Sun 04:12:02 PM 40.8440 -74.6690 57° Northeast 270 311 5,800  Level FlightAware ADS-B
Sun 04:12:22 PM 40.8580 -74.6400 57° Northeast 269 310 5,800  Level FlightAware ADS-B
Sun 04:12:43 PM 40.8720 -74.6100 58° Northeast 267 307 5,800 -800 Level FlightAware ADS-B
Sun 04:13:07 PM 40.8830 -74.5750 67° East 269 310 5,200 -1,256 Descending FlightAware ADS-B
Sun 04:13:26 PM 40.8910 -74.5490 68° East 268 308 4,900 -585 Descending FlightAware ADS-B
Sun 04:13:48 PM 40.9020 -74.5140 67° East 265 305 4,800 -136 Descending FlightAware ADS-B
Sun 04:14:10 PM 40.9125 -74.4780 69° East 264 304 4,800  Level FlightAware ADS-B
Sun 04:14:22 PM 40.9181 -74.4594 68° East 264 304 4,800  Level FlightAware ADS-B
Sun 04:14:27 PM 40.9199 -74.4521 72° East 260 299 4,800  Level FlightAware ADS-B
Sun 04:15:05 PM 40.9300 -74.3970 76° East 230 265 4,800  Level FlightAware ADS-B
Sun 04:15:21 PM 40.9330 -74.3770 79° East 226 260 4,800  Level FlightAware ADS-B
Sun 04:15:40 PM 40.9370 -74.3510 78° East 220 253 4,800  Level FlightAware ADS-B
Sun 04:16:00 PM 40.9410 -74.3240 79° East 222 255 4,800 -727 Level FlightAware ADS-B
Sun 04:16:13 PM 40.9405 -74.3062 92° East 226 260 4,400 -1,655 Descending FlightAware ADS-B
Sun 04:16:29 PM 40.9355 -74.2850 107° East 226 260 4,000 -1,161 Descending FlightAware ADS-B
Sun 04:16:44 PM 40.9306 -74.2651 108° East 225 259 3,800 -400 Descending FlightAware ADS-B
Sun 04:16:59 PM 40.9257 -74.2453 108° East 225 259 3,800  Level FlightAware ADS-B
Sun 04:17:15 PM 40.9208 -74.2253 108° East 216 249 3,800  Level FlightAware ADS-B
Sun 04:17:31 PM 40.9162 -74.2057 107° East 205 236 3,800  Level FlightAware ADS-B
Sun 04:17:39 PM 40.9140 -74.1964 107° East 204 235 3,800  Level FlightAware ADS-B
Sun 04:17:55 PM 40.9096 -74.1775 107° East 205 236 3,800  Level FlightAware ADS-B
Sun 04:18:11 PM 40.9053 -74.1588 107° East 205 236 3,800  Level FlightAware ADS-B
Sun 04:18:30 PM 40.8998 -74.1361 108° East 204 235 3,800 -273 Level FlightAware ADS-B
Sun 04:18:33 PM 40.8986 -74.1326 114° Southeast 205 236 3,700 -1,714 Descending FlightAware ADS-B
Sun 04:18:37 PM 40.8962 -74.1279 124° Southeast 204 235 3,600 -1,091 Descending FlightAware ADS-B
Sun 04:18:44 PM 40.8918 -74.1217 133° Southeast 204 235 3,500 -1,043 Descending FlightAware ADS-B
Sun 04:19:00 PM 40.8809 -74.1083 137° Southeast 203 234 3,200 -960 Descending FlightAware ADS-B
Sun 04:19:09 PM 40.8750 -74.1012 138° Southeast 200 230 3,100 -900 Descending FlightAware ADS-B
Sun 04:19:20 PM 40.8670 -74.0915 137° Southeast 198 228 2,900 -857 Descending FlightAware ADS-B
Sun 04:19:30 PM 40.8606 -74.0841 139° Southeast 198 228 2,800 -462 Descending FlightAware ADS-B
Sun 04:19:33 PM 40.8577 -74.0815 146° Southeast 199 229 2,800  Level FlightAware ADS-B
Sun 04:19:38 PM 40.8537 -74.0791 156° South 203 234 2,800  Level FlightAware ADS-B
Sun 04:19:41 PM 40.8506 -74.0781 166° South 205 236 2,800  Level FlightAware ADS-B
Sun 04:19:45 PM 40.8476 -74.0775 171° South 206 237 2,800  Level FlightAware ADS-B
Sun 04:19:56 PM 40.8366 -74.0775 180° South 207 238 2,800 -375 Level FlightAware ADS-B
Sun 04:20:01 PM 40.8318 -74.0785 189° South 208 239 2,700 -667 Descending FlightAware ADS-B
Sun 04:20:05 PM 40.8288 -74.0793 191° South 209 241 2,700 -857 Level FlightAware ADS-B
Sun 04:20:08 PM 40.8251 -74.0807 196° South 209 241 2,600 -1,333 Descending FlightAware ADS-B
Sun 04:20:14 PM 40.8206 -74.0830 201° Southwest 209 241 2,500 -1,091 Descending FlightAware ADS-B
Sun 04:20:41 PM 40.7976 -74.0980 206° Southwest 206 237 2,000 -1,143 Descending FlightAware ADS-B
Sun 04:20:56 PM 40.7851 -74.1059 206° Southwest 192 221 1,700 -968 Descending FlightAware ADS-B
Sun 04:21:12 PM 40.7731 -74.1135 206° Southwest 182 209 1,500 -857 Descending FlightAware ADS-B
Sun 04:21:24 PM 40.7636 -74.1196 206° Southwest 174 200 1,300 -889 Descending FlightAware ADS-B
Sun 04:21:39 PM 40.7531 -74.1263 206° Southwest 162 186 1,100 -818 Descending FlightAware ADS-B
Sun 04:21:46 PM 40.7488 -74.1290 205° Southwest 158 182 1,000 -1,000 Descending FlightAware ADS-B
Sun 04:21:57 PM 40.7414 -74.1337 206° Southwest 157 181 800 -1,000 Descending FlightAware ADS-B
Sun 04:22:16 PM 40.7289 -74.1416 206° Southwest 154 177 500 -947 Descending FlightAware ADS-B
Sun 04:23:06 PM 40.7370 -74.1360 28° Northeast 153 176 -600 Descending FlightAware ADS-B

Login

Don't have an account? Register now (free) for customized features, flight alerts, and more!